Kitanomaru — JD2835 — position and weather

sailwx.info

Track history (hours):
 
Tides and Currents Weather Stations Pressure Air Temp Water Temp Dewpoint Dewpoint Depression Visibility Wind Speed Wind Dir Waves Ship Positions

Kitanomaru

Last reported at 2017-Nov-25 11:30 UTC. Time now 2017-Nov-25 11:52 UTC.
Position N 35°36' E 140°07'.

Length 39 m; draft 4 m.

Type: Tug. MMSI: 431000773.

Date/timePositionNaut miles runAvg speedWind from/ knotsBaromVisibWave heightAir tempDewpointWater temp
2017-Nov-25 11:30N 35°36' E 140°07'0 0.0
2017-Nov-25 11:00N 35°36' E 140°07'0 0.0
2017-Nov-25 10:30N 35°36' E 140°07'0 0.0
2017-Nov-25 10:00N 35°36' E 140°07'0 0.0
2017-Nov-25 09:31N 35°36' E 140°07'0 0.0
2017-Nov-25 09:00N 35°36' E 140°07'0 0.0
2017-Nov-25 08:30N 35°36' E 140°07'0 0.0
2017-Nov-25 08:00N 35°36' E 140°07'0 0.0
2017-Nov-25 07:30N 35°36' E 140°07'0 0.0
2017-Nov-25 07:00N 35°36' E 140°07'0 0.0
2017-Nov-25 06:30N 35°36' E 140°07'0 0.0
2017-Nov-25 06:00N 35°36' E 140°07'0 0.0
2017-Nov-25 05:30N 35°36' E 140°07'0 0.0
2017-Nov-25 05:00N 35°36' E 140°07'0 0.0
2017-Nov-25 04:30N 35°36' E 140°07'0 0.0
2017-Nov-25 04:00N 35°36' E 140°07'7 0.3
2017-Nov-24 06:27N 35°40' E 139°59'9 3.1
2017-Nov-24 03:28N 35°31' E 139°56'0 0.1
2017-Nov-24 03:00N 35°31' E 139°56'0 0.0
2017-Nov-24 02:30N 35°31' E 139°56'0 0.3
2017-Nov-24 02:00N 35°31' E 139°56'1 1.1
2017-Nov-24 01:21N 35°30' E 139°55'2 4.0
2017-Nov-24 00:58N 35°29' E 139°54'0 0.6
2017-Nov-24 00:30N 35°29' E 139°54'4 8.8
2017-Nov-24 00:00N 35°32' E 139°58'2 0.9
2017-Nov-23 21:45N 35°34' E 139°60'1 3.6
2017-Nov-23 21:26N 35°34' E 139°59'4 0.2
2017-Nov-22 22:33N 35°32' E 140°03'  
2017-Nov-20 00:30N 35°31' E 139°56'7 0.4
2017-Nov-19 04:15N 35°33' E 140°05'2 6.1
2017-Nov-19 03:57N 35°34' E 140°03'6 0.2
2017-Nov-18 02:19N 35°31' E 139°56'0 0.7
2017-Nov-18 02:00N 35°31' E 139°56'0 0.0
2017-Nov-18 01:30N 35°31' E 139°56'  
Track history (hours):
 
Tides and Currents Weather Stations Pressure Air Temp Water Temp Dewpoint Dewpoint Depression Visibility Wind Speed Wind Dir Waves Ship Positions

Kitanomaru

Last reported at 2017-Nov-25 11:30 UTC. Time now 2017-Nov-25 11:52 UTC.
Position N 35°36' E 140°07'.

Length 39 m; draft 4 m.

Type: Tug. MMSI: 431000773.

Date/timePositionNaut miles runAvg speedWind from/ knotsBaromVisibWave heightAir tempDewpointWater temp
2017-Nov-25 11:30N 35°36' E 140°07'0 0.0
2017-Nov-25 11:00N 35°36' E 140°07'0 0.0
2017-Nov-25 10:30N 35°36' E 140°07'0 0.0
2017-Nov-25 10:00N 35°36' E 140°07'0 0.0
2017-Nov-25 09:31N 35°36' E 140°07'0 0.0
2017-Nov-25 09:00N 35°36' E 140°07'0 0.0
2017-Nov-25 08:30N 35°36' E 140°07'0 0.0
2017-Nov-25 08:00N 35°36' E 140°07'0 0.0
2017-Nov-25 07:30N 35°36' E 140°07'0 0.0
2017-Nov-25 07:00N 35°36' E 140°07'0 0.0
2017-Nov-25 06:30N 35°36' E 140°07'0 0.0
2017-Nov-25 06:00N 35°36' E 140°07'0 0.0
2017-Nov-25 05:30N 35°36' E 140°07'0 0.0
2017-Nov-25 05:00N 35°36' E 140°07'0 0.0
2017-Nov-25 04:30N 35°36' E 140°07'0 0.0
2017-Nov-25 04:00N 35°36' E 140°07'7 0.3
2017-Nov-24 06:27N 35°40' E 139°59'9 3.1
2017-Nov-24 03:28N 35°31' E 139°56'0 0.1
2017-Nov-24 03:00N 35°31' E 139°56'0 0.0
2017-Nov-24 02:30N 35°31' E 139°56'0 0.3
2017-Nov-24 02:00N 35°31' E 139°56'1 1.1
2017-Nov-24 01:21N 35°30' E 139°55'2 4.0
2017-Nov-24 00:58N 35°29' E 139°54'0 0.6
2017-Nov-24 00:30N 35°29' E 139°54'4 8.8
2017-Nov-24 00:00N 35°32' E 139°58'2 0.9
2017-Nov-23 21:45N 35°34' E 139°60'1 3.6
2017-Nov-23 21:26N 35°34' E 139°59'4 0.2
2017-Nov-22 22:33N 35°32' E 140°03'  
2017-Nov-20 00:30N 35°31' E 139°56'7 0.4
2017-Nov-19 04:15N 35°33' E 140°05'2 6.1
2017-Nov-19 03:57N 35°34' E 140°03'6 0.2
2017-Nov-18 02:19N 35°31' E 139°56'0 0.7
2017-Nov-18 02:00N 35°31' E 139°56'0 0.0
2017-Nov-18 01:30N 35°31' E 139°56'  

Dump ship's entire track history